Time;durP1;ratioP1;P1;durP2;ratioP2;P2;SDS_P1;SDS_P2;PMS_P1;PMS_P2;Temp;Humidity;BMP_temperature;BMP_pressure;BME280_temperature;BME280_humidity;BME280_pressure;Samples;Min_cycle;Max_cycle;Signal;HPM_P1;HPM_P2
2023/04/30 00:00:49;;;;;;;3.92;2.40;;;9.80;99.90;;;;;;5091780;28;20059;-75
2023/04/30 00:03:15;;;;;;;3.97;2.42;;;9.70;99.90;;;;;;5094145;28;20060;-75
2023/04/30 00:05:40;;;;;;;2.83;2.10;;;9.70;99.90;;;;;;5074112;28;20078;-75
2023/04/30 00:08:06;;;;;;;3.08;2.08;;;9.70;99.90;;;;;;5084661;28;20032;-75
2023/04/30 00:10:32;;;;;;;3.30;2.00;;;9.70;99.90;;;;;;5086363;28;20051;-76
2023/04/30 00:12:57;;;;;;;3.00;2.00;;;9.80;99.90;;;;;;5075041;28;20473;-77
2023/04/30 00:15:23;;;;;;;3.35;1.92;;;9.80;99.90;;;;;;5084082;28;20039;-76
2023/04/30 00:17:49;;;;;;;3.08;2.05;;;9.80;99.90;;;;;;5088180;28;20028;-76
2023/04/30 00:20:14;;;;;;;2.95;1.80;;;9.80;99.90;;;;;;5084562;28;20868;-76
2023/04/30 00:22:40;;;;;;;2.88;2.10;;;9.80;99.90;;;;;;5081153;28;20036;-77
2023/04/30 00:25:06;;;;;;;2.85;1.73;;;9.90;99.90;;;;;;5091182;28;20542;-77
2023/04/30 00:27:32;;;;;;;2.65;1.50;;;9.90;99.90;;;;;;5092208;28;20110;-76
2023/04/30 00:29:57;;;;;;;3.85;1.60;;;9.90;99.90;;;;;;5087769;28;20107;-77
2023/04/30 00:32:23;;;;;;;3.67;1.67;;;9.90;99.90;;;;;;5081458;28;20027;-75
2023/04/30 00:34:49;;;;;;;2.30;1.52;;;9.90;99.90;;;;;;5080555;28;20503;-76
2023/04/30 00:37:15;;;;;;;2.00;1.38;;;9.90;99.90;;;;;;5074114;28;20472;-76
2023/04/30 00:39:40;;;;;;;2.00;1.40;;;9.90;99.90;;;;;;5075262;28;20054;-76
2023/04/30 00:42:07;;;;;;;1.63;1.10;;;9.90;99.90;;;;;;5090262;28;20024;-75
2023/04/30 00:44:32;;;;;;;2.28;1.20;;;9.90;99.90;;;;;;5094393;28;20028;-76
2023/04/30 00:46:58;;;;;;;1.92;1.10;;;9.80;99.90;;;;;;5090902;28;20038;-77
2023/04/30 00:49:24;;;;;;;1.63;1.00;;;9.90;99.90;;;;;;5082717;28;20071;-76
2023/04/30 00:51:51;;;;;;;1.70;1.00;;;9.80;99.90;;;;;;5076957;28;20039;-76
2023/04/30 00:54:19;;;;;;;5.35;1.70;;;9.90;99.90;;;;;;5082614;28;20051;-77
2023/04/30 00:56:45;;;;;;;3.42;1.63;;;9.80;99.90;;;;;;5078952;28;20115;-77
2023/04/30 00:59:12;;;;;;;2.05;1.05;;;9.80;99.90;;;;;;5078313;28;20066;-76
2023/04/30 01:01:38;;;;;;;1.60;1.02;;;9.70;99.90;;;;;;5082955;28;20040;-77
2023/04/30 01:04:04;;;;;;;3.17;1.30;;;9.70;99.90;;;;;;5076081;28;20036;-76
2023/04/30 01:06:31;;;;;;;1.77;0.93;;;9.70;99.90;;;;;;5087419;28;20056;-77
2023/04/30 01:08:57;;;;;;;2.00;1.08;;;9.70;99.90;;;;;;5076218;28;20115;-76
2023/04/30 01:11:45;;;;;;;1.92;1.38;;;9.70;99.90;;;;;;5074919;28;20028;-75
2023/04/30 01:14:28;;;;;;;3.17;1.40;;;9.70;99.90;;;;;;5087053;28;20036;-76
2023/04/30 01:17:04;;;;;;;2.03;1.13;;;9.70;99.90;;;;;;5076762;28;20025;-76
2023/04/30 01:19:44;;;;;;;2.88;1.38;;;9.70;99.90;;;;;;5080968;28;20059;-75
2023/04/30 01:22:49;;;;;;;1.98;1.13;;;9.70;99.90;;;;;;5083544;28;20047;-75
2023/04/30 01:25:38;;;;;;;2.50;1.48;;;9.70;99.90;;;;;;5070556;28;20036;-76
2023/04/30 01:28:04;;;;;;;2.13;1.35;;;9.80;99.90;;;;;;5075301;28;20028;-75
2023/04/30 01:30:34;;;;;;;2.30;1.40;;;9.70;99.90;;;;;;5077842;28;20381;-75
2023/04/30 01:33:00;;;;;;;4.10;1.88;;;9.70;99.90;;;;;;5088607;28;20036;-76
2023/04/30 01:36:02;;;;;;;2.08;1.30;;;9.70;99.90;;;;;;5083102;28;20036;-75
2023/04/30 01:38:34;;;;;;;2.17;1.40;;;9.80;99.90;;;;;;5076802;28;20117;-75
2023/04/30 01:41:37;;;;;;;2.38;1.30;;;9.80;99.90;;;;;;5085176;28;20549;-75
2023/04/30 01:44:03;;;;;;;2.30;1.40;;;9.80;99.90;;;;;;5073393;28;20047;-75
2023/04/30 01:46:29;;;;;;;2.65;1.50;;;9.80;99.90;;;;;;5082552;28;20016;-75
2023/04/30 01:49:17;;;;;;;2.40;1.52;;;9.90;99.90;;;;;;5088244;28;20220;-75
2023/04/30 01:51:47;;;;;;;2.15;1.40;;;9.90;99.90;;;;;;5092813;28;20035;-75
2023/04/30 01:54:36;;;;;;;1.85;1.23;;;9.90;99.90;;;;;;5091872;28;20024;-75
2023/04/30 01:57:25;;;;;;;1.90;1.20;;;9.90;99.90;;;;;;5090205;28;20033;-75
2023/04/30 01:59:52;;;;;;;2.10;1.30;;;9.90;99.90;;;;;;5091987;28;20132;-75
2023/04/30 02:02:17;;;;;;;2.75;1.50;;;9.90;99.90;;;;;;5075165;28;20068;-75
2023/04/30 02:04:43;;;;;;;2.10;1.40;;;9.90;99.90;;;;;;5071555;28;20044;-75
2023/04/30 02:07:09;;;;;;;2.60;1.70;;;9.90;99.90;;;;;;5077803;28;20067;-76
2023/04/30 02:09:34;;;;;;;1.90;1.40;;;9.90;99.90;;;;;;5093216;28;20491;-75
2023/04/30 02:12:01;;;;;;;2.40;1.33;;;9.90;99.90;;;;;;5080206;28;20384;-75
2023/04/30 02:14:28;;;;;;;2.25;1.38;;;9.80;99.90;;;;;;5072635;28;20062;-76
2023/04/30 02:16:53;;;;;;;2.30;1.60;;;9.80;99.90;;;;;;5072936;28;20024;-76
2023/04/30 02:19:19;;;;;;;1.77;1.10;;;9.70;99.90;;;;;;5089061;28;20043;-75
2023/04/30 02:21:45;;;;;;;2.53;1.52;;;9.70;99.90;;;;;;5089852;28;20024;-77
2023/04/30 02:24:10;;;;;;;2.60;1.35;;;9.70;99.90;;;;;;5074632;28;20044;-76
2023/04/30 02:26:36;;;;;;;4.07;1.60;;;9.70;99.90;;;;;;5074596;28;20024;-76
2023/04/30 02:29:02;;;;;;;3.72;1.35;;;9.70;99.90;;;;;;5094115;28;20130;-77
2023/04/30 02:31:27;;;;;;;1.80;1.13;;;9.70;99.90;;;;;;5084233;28;20511;-77
2023/04/30 02:33:53;;;;;;;2.28;1.33;;;9.60;99.90;;;;;;5078040;28;20032;-77
2023/04/30 02:36:19;;;;;;;2.70;1.20;;;9.70;99.90;;;;;;5084651;28;20553;-76
2023/04/30 02:38:45;;;;;;;1.63;1.02;;;9.70;99.90;;;;;;5084935;28;20040;-76
2023/04/30 02:41:11;;;;;;;2.53;1.42;;;9.70;99.90;;;;;;5076592;28;20033;-76
2023/04/30 02:43:36;;;;;;;2.30;1.00;;;9.70;99.90;;;;;;5082639;28;20033;-75
2023/04/30 02:46:02;;;;;;;2.30;1.50;;;9.80;99.90;;;;;;5076323;28;20044;-77
2023/04/30 02:48:27;;;;;;;1.85;1.20;;;9.80;99.90;;;;;;5081009;28;20043;-76
2023/04/30 02:50:53;;;;;;;2.25;1.10;;;9.80;99.90;;;;;;5078349;28;20028;-76
2023/04/30 02:53:19;;;;;;;1.90;1.20;;;9.80;99.90;;;;;;5080563;28;20025;-76
2023/04/30 02:55:45;;;;;;;3.38;1.35;;;9.80;99.90;;;;;;5081334;28;20036;-77
2023/04/30 02:58:10;;;;;;;2.05;1.30;;;9.80;99.90;;;;;;5079799;28;20024;-77
2023/04/30 03:00:36;;;;;;;2.10;1.27;;;9.80;99.90;;;;;;5083818;28;20115;-76
2023/04/30 03:03:02;;;;;;;1.73;1.02;;;9.80;99.90;;;;;;5087381;28;20028;-77
2023/04/30 03:05:29;;;;;;;1.35;1.00;;;9.80;99.90;;;;;;5077207;28;20143;-77
2023/04/30 03:07:54;;;;;;;2.15;1.30;;;9.80;99.90;;;;;;5078474;28;20035;-76
2023/04/30 03:10:20;;;;;;;1.80;1.02;;;9.80;99.90;;;;;;5083031;28;20107;-76
2023/04/30 03:12:46;;;;;;;2.45;1.17;;;9.80;99.90;;;;;;5085895;28;20534;-77
2023/04/30 03:15:11;;;;;;;2.30;1.10;;;9.80;99.90;;;;;;5076463;28;20128;-76
2023/04/30 03:17:37;;;;;;;2.35;1.38;;;9.80;99.90;;;;;;5078087;28;20480;-77
2023/04/30 03:20:03;;;;;;;3.17;1.30;;;9.80;99.90;;;;;;5076345;28;20056;-75
2023/04/30 03:22:29;;;;;;;1.88;1.23;;;9.80;99.90;;;;;;5077348;28;20480;-77
2023/04/30 03:24:55;;;;;;;2.55;1.27;;;9.80;99.90;;;;;;5083468;28;20064;-77
2023/04/30 03:27:21;;;;;;;1.27;0.90;;;9.80;99.90;;;;;;5082638;28;20488;-77
2023/04/30 03:29:47;;;;;;;5.22;1.05;;;9.80;99.90;;;;;;5078253;28;20032;-76
2023/04/30 03:32:13;;;;;;;2.10;1.30;;;9.80;99.90;;;;;;5082091;28;20074;-76
2023/04/30 03:34:38;;;;;;;2.17;1.23;;;9.80;99.90;;;;;;5075651;28;20025;-76
2023/04/30 03:37:04;;;;;;;2.42;1.30;;;9.80;99.90;;;;;;5088197;28;20023;-77
2023/04/30 03:39:30;;;;;;;2.30;1.50;;;9.80;99.90;;;;;;5094862;28;20040;-76
2023/04/30 03:41:55;;;;;;;3.00;1.13;;;9.80;99.90;;;;;;5080165;28;20063;-76
2023/04/30 03:44:21;;;;;;;1.80;1.13;;;9.80;99.90;;;;;;5083050;28;20044;-76
2023/04/30 03:46:47;;;;;;;2.03;1.23;;;9.80;99.90;;;;;;5081753;28;20024;-76
2023/04/30 03:49:13;;;;;;;3.25;1.73;;;9.70;99.90;;;;;;5084254;28;20107;-76
2023/04/30 03:51:40;;;;;;;3.72;1.70;;;9.70;99.90;;;;;;5091711;28;20063;-76
2023/04/30 03:54:06;;;;;;;2.75;1.90;;;9.70;99.90;;;;;;5094673;28;20544;-75
2023/04/30 03:56:33;;;;;;;2.17;1.63;;;9.60;99.90;;;;;;5082197;28;20028;-77
2023/04/30 03:58:59;;;;;;;2.90;1.92;;;9.60;99.90;;;;;;5083933;28;20031;-75
2023/04/30 04:01:25;;;;;;;4.07;2.92;;;9.60;99.90;;;;;;5088531;28;20480;-75
2023/04/30 04:03:50;;;;;;;4.28;3.40;;;9.60;99.90;;;;;;5078829;28;20024;-76
2023/04/30 04:06:16;;;;;;;4.50;3.40;;;9.60;99.90;;;;;;5083241;28;20029;-76
2023/04/30 04:08:42;;;;;;;4.80;3.35;;;9.50;99.90;;;;;;5079900;28;20068;-76
2023/04/30 04:11:09;;;;;;;4.80;2.90;;;9.50;99.90;;;;;;5078344;28;20039;-76
2023/04/30 04:13:35;;;;;;;5.47;2.53;;;9.60;99.90;;;;;;5082095;28;20025;-76
2023/04/30 04:16:00;;;;;;;4.82;3.72;;;9.50;99.90;;;;;;5079373;28;20029;-76
2023/04/30 04:18:26;;;;;;;5.03;4.25;;;9.60;99.90;;;;;;5078856;28;20025;-76
2023/04/30 04:20:55;;;;;;;4.80;3.80;;;9.60;99.90;;;;;;5079295;28;20042;-77
2023/04/30 04:23:21;;;;;;;5.63;3.83;;;9.60;99.90;;;;;;5082093;28;20040;-77
2023/04/30 04:25:48;;;;;;;4.75;3.42;;;9.60;99.90;;;;;;5082663;28;20031;-77
2023/04/30 04:28:15;;;;;;;4.05;3.20;;;9.50;99.90;;;;;;5081335;28;20545;-76
2023/04/30 04:30:42;;;;;;;4.18;2.97;;;9.50;99.90;;;;;;5084719;28;20016;-77
2023/04/30 04:33:08;;;;;;;4.10;3.00;;;9.50;99.90;;;;;;5078484;28;20029;-76
2023/04/30 04:35:33;;;;;;;5.07;3.50;;;9.50;99.90;;;;;;5081841;28;20024;-77
2023/04/30 04:38:00;;;;;;;6.65;3.80;;;9.40;99.90;;;;;;5082157;28;20426;-77
2023/04/30 04:40:25;;;;;;;5.93;3.97;;;9.40;99.90;;;;;;5080942;28;20093;-77
2023/04/30 04:42:51;;;;;;;7.97;4.43;;;9.50;99.90;;;;;;5093752;28;20035;-78
2023/04/30 04:45:18;;;;;;;6.22;4.38;;;9.50;99.90;;;;;;5088739;28;20025;-78
2023/04/30 04:47:43;;;;;;;6.18;4.00;;;9.50;99.90;;;;;;5084389;28;20031;-77
2023/04/30 04:50:10;;;;;;;6.68;3.97;;;9.50;99.90;;;;;;5087382;28;20391;-78
2023/04/30 04:52:36;;;;;;;5.88;3.90;;;9.60;99.90;;;;;;5081787;28;20552;-77
2023/04/30 04:55:01;;;;;;;4.30;2.70;;;9.60;99.90;;;;;;5081049;28;20025;-77
2023/04/30 04:57:27;;;;;;;3.40;2.13;;;9.60;99.90;;;;;;5086433;28;20032;-78
2023/04/30 04:59:53;;;;;;;2.97;2.17;;;9.60;99.90;;;;;;5084560;28;20036;-76
2023/04/30 05:02:18;;;;;;;3.28;1.52;;;9.60;99.90;;;;;;5074844;28;20025;-78
2023/04/30 05:04:46;;;;;;;3.03;1.70;;;9.60;99.90;;;;;;5077244;28;20041;-76
2023/04/30 05:07:11;;;;;;;3.63;2.38;;;9.60;99.90;;;;;;5084232;28;20024;-77
2023/04/30 05:09:37;;;;;;;5.13;3.25;;;9.60;99.90;;;;;;5093819;28;20081;-76
2023/04/30 05:12:03;;;;;;;5.20;3.10;;;9.70;99.90;;;;;;5079533;28;20107;-75
2023/04/30 05:14:28;;;;;;;5.75;3.50;;;9.70;99.90;;;;;;5072574;28;20051;-76
2023/04/30 05:16:54;;;;;;;8.35;2.97;;;9.70;99.90;;;;;;5084263;28;20484;-76
2023/04/30 05:19:21;;;;;;;5.57;3.10;;;9.70;99.90;;;;;;5089519;28;20533;-75
2023/04/30 05:21:46;;;;;;;4.38;2.78;;;9.80;99.90;;;;;;5078558;28;20033;-76
2023/04/30 05:24:12;;;;;;;4.53;2.97;;;9.80;99.90;;;;;;5079191;28;20027;-76
2023/04/30 05:26:37;;;;;;;4.00;2.70;;;9.80;99.90;;;;;;5078429;28;20472;-76
2023/04/30 05:29:03;;;;;;;3.88;2.72;;;9.80;99.90;;;;;;5077957;28;20562;-75
2023/04/30 05:31:31;;;;;;;4.13;2.58;;;9.80;99.90;;;;;;5080860;28;20467;-75
2023/04/30 05:33:56;;;;;;;4.40;3.00;;;9.80;99.90;;;;;;5075392;28;20025;-75
2023/04/30 05:36:22;;;;;;;7.07;4.07;;;9.90;99.90;;;;;;5075270;28;20082;-76
2023/04/30 05:38:48;;;;;;;6.15;3.67;;;9.90;99.90;;;;;;5088205;28;20373;-76
2023/04/30 05:41:13;;;;;;;5.68;4.00;;;9.80;99.90;;;;;;5074955;28;20029;-77
2023/04/30 05:43:39;;;;;;;5.75;3.90;;;9.90;99.90;;;;;;5082435;28;20160;-76
2023/04/30 05:46:05;;;;;;;6.95;4.20;;;9.80;99.90;;;;;;5080540;28;20115;-77
2023/04/30 05:48:31;;;;;;;6.47;4.78;;;9.80;99.90;;;;;;5079904;28;20020;-76
2023/04/30 05:50:56;;;;;;;8.68;5.68;;;9.90;99.90;;;;;;5093637;28;20039;-75
2023/04/30 05:53:22;;;;;;;10.60;7.53;;;9.90;99.90;;;;;;5091399;28;20047;-77
2023/04/30 05:55:48;;;;;;;11.85;8.10;;;9.90;99.90;;;;;;5091453;28;20150;-75
2023/04/30 05:58:14;;;;;;;11.75;8.68;;;9.90;99.90;;;;;;5072996;28;20028;-75
2023/04/30 06:00:40;;;;;;;10.10;7.70;;;9.90;99.90;;;;;;5073172;28;20074;-75
2023/04/30 06:03:06;;;;;;;11.93;7.00;;;10.00;99.90;;;;;;5072741;28;20115;-75
2023/04/30 06:05:32;;;;;;;10.40;8.05;;;10.00;99.90;;;;;;5076983;28;20392;-76
2023/04/30 06:07:57;;;;;;;12.10;8.98;;;10.00;99.90;;;;;;5077496;28;20027;-75
2023/04/30 06:10:23;;;;;;;11.55;7.38;;;10.00;99.90;;;;;;5089545;28;20109;-75
2023/04/30 06:12:49;;;;;;;11.27;7.90;;;10.00;99.90;;;;;;5095768;28;20028;-76
2023/04/30 06:15:15;;;;;;;14.07;10.18;;;10.10;99.90;;;;;;5091653;28;20085;-77
2023/04/30 06:17:41;;;;;;;13.88;8.98;;;10.10;99.90;;;;;;5079518;28;20033;-77
2023/04/30 06:20:07;;;;;;;16.05;9.38;;;10.10;99.90;;;;;;5094079;28;20044;-77
2023/04/30 06:22:33;;;;;;;13.48;10.25;;;10.10;99.90;;;;;;5075852;28;20029;-75
2023/04/30 06:24:59;;;;;;;12.82;9.07;;;10.20;99.90;;;;;;5088201;28;20051;-75
2023/04/30 06:27:26;;;;;;;14.10;10.07;;;10.20;99.90;;;;;;5093493;28;20097;-75
2023/04/30 06:29:53;;;;;;;14.68;10.60;;;10.20;99.90;;;;;;5085976;28;20098;-75
2023/04/30 06:32:18;;;;;;;17.85;11.27;;;10.30;99.90;;;;;;5079813;28;20035;-75
2023/04/30 06:34:44;;;;;;;14.02;8.82;;;10.30;99.90;;;;;;5087804;28;20028;-74
2023/04/30 06:37:10;;;;;;;12.80;9.85;;;10.30;99.90;;;;;;5097303;28;20400;-74
2023/04/30 06:39:35;;;;;;;14.73;10.23;;;10.40;99.90;;;;;;5093315;28;20396;-74
2023/04/30 06:42:01;;;;;;;13.13;9.40;;;10.40;99.90;;;;;;5075771;28;20032;-74
2023/04/30 06:44:27;;;;;;;16.98;11.48;;;10.50;99.90;;;;;;5082823;28;20036;-74
2023/04/30 06:46:53;;;;;;;14.25;9.75;;;10.50;99.90;;;;;;5087660;28;20033;-74
2023/04/30 06:49:18;;;;;;;17.30;10.82;;;10.60;99.90;;;;;;5092517;28;20113;-74
2023/04/30 06:51:44;;;;;;;12.98;8.77;;;10.70;99.90;;;;;;5095195;28;20028;-74
2023/04/30 06:54:10;;;;;;;31.73;26.90;;;10.80;99.90;;;;;;5094279;28;20503;-74
2023/04/30 06:56:35;;;;;;;34.65;30.42;;;10.80;99.90;;;;;;5080293;28;20029;-75
2023/04/30 06:59:01;;;;;;;23.17;20.55;;;10.90;99.90;;;;;;5096006;28;20023;-75
2023/04/30 07:01:26;;;;;;;15.23;11.77;;;10.90;99.90;;;;;;5088635;28;20115;-74
2023/04/30 07:03:53;;;;;;;15.77;12.43;;;11.00;99.90;;;;;;5080465;28;20078;-75
2023/04/30 07:06:20;;;;;;;13.13;9.93;;;11.00;99.90;;;;;;5076365;28;20021;-75
2023/04/30 07:08:46;;;;;;;18.73;12.85;;;11.10;99.90;;;;;;5089613;28;20028;-75
2023/04/30 07:11:12;;;;;;;15.77;10.43;;;11.20;99.90;;;;;;5094973;28;20103;-74
2023/04/30 07:13:38;;;;;;;14.90;9.75;;;11.20;99.90;;;;;;5088833;28;20021;-77
2023/04/30 07:16:04;;;;;;;11.88;7.95;;;11.30;99.90;;;;;;5083519;28;20035;-75
2023/04/30 07:18:30;;;;;;;10.90;7.88;;;11.30;99.90;;;;;;5095723;28;20496;-74
2023/04/30 07:20:56;;;;;;;9.98;7.32;;;11.40;99.90;;;;;;5086630;28;20033;-75
2023/04/30 07:23:21;;;;;;;12.30;7.30;;;11.50;99.90;;;;;;5084748;28;20077;-74
2023/04/30 07:25:47;;;;;;;8.00;6.05;;;11.60;99.90;;;;;;5082410;28;20115;-75
2023/04/30 07:28:13;;;;;;;10.25;7.65;;;11.80;99.90;;;;;;5084835;28;20395;-74
2023/04/30 07:30:39;;;;;;;9.05;6.43;;;11.90;99.90;;;;;;5080611;28;20024;-75
2023/04/30 07:33:06;;;;;;;9.35;7.03;;;12.00;99.90;;;;;;5080541;28;20028;-75
2023/04/30 07:35:32;;;;;;;9.63;6.50;;;12.00;99.90;;;;;;5078926;28;20025;-76
2023/04/30 07:37:58;;;;;;;12.30;8.15;;;12.10;99.90;;;;;;5082025;28;20024;-75
2023/04/30 07:40:23;;;;;;;10.82;7.78;;;12.20;99.90;;;;;;5085984;28;20107;-74
2023/04/30 07:42:49;;;;;;;12.95;7.85;;;12.20;99.90;;;;;;5082006;28;20036;-75
2023/04/30 07:45:15;;;;;;;10.82;7.63;;;12.30;99.90;;;;;;5079854;28;20037;-75
2023/04/30 07:47:40;;;;;;;10.05;7.47;;;12.30;99.90;;;;;;5081653;28;20036;-75
2023/04/30 07:50:06;;;;;;;13.30;9.65;;;12.40;99.90;;;;;;5085158;28;20031;-74
2023/04/30 07:52:32;;;;;;;11.13;8.52;;;12.50;99.90;;;;;;5084560;28;20484;-75
2023/04/30 07:54:58;;;;;;;11.65;9.07;;;12.50;99.90;;;;;;5076900;28;20066;-75
2023/04/30 07:57:25;;;;;;;11.23;8.80;;;12.50;99.90;;;;;;5075177;28;20035;-74
2023/04/30 07:59:55;;;;;;;8.88;6.57;;;12.60;99.90;;;;;;5075451;28;20028;-75
2023/04/30 08:02:21;;;;;;;9.45;7.35;;;12.70;99.90;;;;;;5074972;28;20029;-75
2023/04/30 08:04:46;;;;;;;8.52;6.38;;;12.70;99.90;;;;;;5074863;28;20397;-75
2023/04/30 08:07:14;;;;;;;9.52;6.00;;;12.80;99.90;;;;;;5075291;28;20472;-75
2023/04/30 08:09:40;;;;;;;9.15;5.53;;;12.80;99.90;;;;;;5081582;28;20025;-75
2023/04/30 08:12:06;;;;;;;8.73;5.45;;;12.90;99.90;;;;;;5079671;28;20020;-75
2023/04/30 08:14:32;;;;;;;7.35;5.25;;;13.00;99.90;;;;;;5079769;28;20392;-75
2023/04/30 08:16:59;;;;;;;7.63;5.30;;;13.10;99.90;;;;;;5081599;28;20071;-75
2023/04/30 08:19:25;;;;;;;7.78;5.10;;;13.10;99.90;;;;;;5084623;28;20078;-75
2023/04/30 08:21:51;;;;;;;9.38;5.97;;;13.10;99.90;;;;;;5084466;28;20024;-75
2023/04/30 08:24:17;;;;;;;7.38;5.15;;;13.20;99.90;;;;;;5077961;28;20035;-76
2023/04/30 08:26:43;;;;;;;6.07;4.60;;;13.10;99.90;;;;;;5078330;28;20035;-75
2023/04/30 08:29:08;;;;;;;7.38;5.00;;;13.10;99.90;;;;;;5074535;28;20073;-75
2023/04/30 08:31:34;;;;;;;7.63;5.57;;;13.10;99.90;;;;;;5100952;28;20024;-75
2023/04/30 08:34:00;;;;;;;6.68;4.82;;;13.20;99.90;;;;;;5099467;28;20028;-76
2023/04/30 08:36:26;;;;;;;8.18;4.70;;;13.20;99.90;;;;;;5079189;28;20039;-75
2023/04/30 08:38:52;;;;;;;6.35;4.60;;;13.30;99.90;;;;;;5084348;28;20020;-75
2023/04/30 08:41:24;;;;;;;7.97;4.93;;;13.30;99.90;;;;;;5084152;28;20028;-75
2023/04/30 08:43:52;;;;;;;8.63;5.50;;;13.40;99.90;;;;;;5085223;28;20467;-76
2023/04/30 08:46:20;;;;;;;5.32;4.00;;;13.60;99.90;;;;;;5073996;28;20037;-75
2023/04/30 08:48:47;;;;;;;5.82;2.90;;;13.60;99.90;;;;;;5078626;28;20375;-76
2023/04/30 08:51:13;;;;;;;4.72;3.20;;;13.80;99.90;;;;;;5082152;28;20035;-76
2023/04/30 08:53:40;;;;;;;3.90;2.70;;;13.90;99.90;;;;;;5084575;27;20024;-75
2023/04/30 08:56:09;;;;;;;4.18;2.55;;;14.10;99.90;;;;;;5082339;28;20480;-76
2023/04/30 08:58:36;;;;;;;4.72;2.58;;;14.30;99.90;;;;;;5076268;28;20067;-76
2023/04/30 09:01:04;;;;;;;3.60;2.30;;;14.40;99.90;;;;;;5078031;28;20059;-76
2023/04/30 09:03:30;;;;;;;4.30;2.83;;;14.50;99.90;;;;;;5078050;28;20153;-76
2023/04/30 09:05:56;;;;;;;3.67;2.47;;;14.50;99.90;;;;;;5082925;28;20030;-76
2023/04/30 09:08:47;;;;;;;3.28;2.40;;;14.50;99.90;;;;;;5082135;28;20028;-76
2023/04/30 09:11:23;;;;;;;3.75;2.22;;;14.70;99.90;;;;;;5085372;28;20418;-77
2023/04/30 09:13:54;;;;;;;3.65;2.10;;;14.80;99.90;;;;;;5077940;28;20076;-77
2023/04/30 09:16:21;;;;;;;3.20;1.97;;;14.90;99.90;;;;;;5082527;28;20036;-77
2023/04/30 09:18:47;;;;;;;3.55;2.15;;;14.90;99.90;;;;;;5079439;28;20033;-77
2023/04/30 09:21:13;;;;;;;4.25;2.30;;;15.20;99.90;;;;;;5080744;28;20028;-77
2023/04/30 09:24:08;;;;;;;4.60;2.63;;;15.50;99.90;;;;;;5079298;28;20035;-77
2023/04/30 09:26:36;;;;;;;4.30;2.40;;;15.70;99.90;;;;;;5061142;28;20117;-77
2023/04/30 09:29:06;;;;;;;5.72;2.70;;;15.80;99.90;;;;;;5074993;28;20104;-78
2023/04/30 09:31:43;;;;;;;3.72;2.20;;;16.00;99.90;;;;;;5077379;28;20052;-78
2023/04/30 09:34:09;;;;;;;3.63;2.20;;;16.00;99.90;;;;;;5077032;28;20051;-76
2023/04/30 09:36:35;;;;;;;3.85;2.53;;;16.00;99.90;;;;;;5089809;28;20028;-78
2023/04/30 09:39:10;;;;;;;3.28;2.30;;;16.00;99.90;;;;;;5080810;28;20453;-78
2023/04/30 09:41:36;;;;;;;4.55;2.17;;;15.80;99.90;;;;;;5082611;28;20032;-77
2023/04/30 09:44:02;;;;;;;3.75;2.40;;;15.80;99.90;;;;;;5074669;28;20395;-77
2023/04/30 09:46:33;;;;;;;3.25;2.20;;;15.80;99.90;;;;;;5078713;28;20102;-77
2023/04/30 09:49:02;;;;;;;3.58;2.50;;;15.70;99.90;;;;;;5078815;28;20040;-77
2023/04/30 09:51:28;;;;;;;3.47;2.35;;;15.60;99.90;;;;;;5083795;28;20035;-77
2023/04/30 09:53:55;;;;;;;3.60;2.30;;;15.70;99.90;;;;;;5081904;28;20024;-77
2023/04/30 09:56:25;;;;;;;3.33;2.40;;;15.80;99.90;;;;;;5076796;28;20112;-76
2023/04/30 09:58:53;;;;;;;3.10;1.80;;;15.80;99.90;;;;;;5077403;28;20032;-76
2023/04/30 10:01:20;;;;;;;2.88;2.15;;;16.00;99.90;;;;;;5077131;28;20055;-76
2023/04/30 10:03:47;;;;;;;3.92;2.00;;;16.10;99.90;;;;;;5074211;28;20082;-75
2023/04/30 10:06:15;;;;;;;5.38;2.00;;;16.10;99.90;;;;;;5079690;28;21712;-74
2023/04/30 10:08:43;;;;;;;3.00;2.08;;;16.10;99.90;;;;;;5089289;28;20425;-74
2023/04/30 10:11:15;;;;;;;4.13;2.22;;;16.10;99.90;;;;;;5088956;28;20384;-74
2023/04/30 10:13:40;;;;;;;2.80;1.92;;;16.20;99.90;;;;;;5085883;28;20028;-77
2023/04/30 10:16:44;;;;;;;3.63;1.75;;;16.20;99.90;;;;;;5084845;28;20495;-75
2023/04/30 10:19:19;;;;;;;3.67;2.17;;;16.20;99.90;;;;;;5040744;28;20040;-75
2023/04/30 10:21:46;;;;;;;2.78;1.80;;;16.20;99.90;;;;;;5092560;28;20048;-74
2023/04/30 10:24:19;;;;;;;3.28;1.80;;;16.30;99.90;;;;;;5078725;28;20024;-75
2023/04/30 10:26:46;;;;;;;3.28;1.80;;;16.40;99.90;;;;;;5078322;28;20017;-76
2023/04/30 10:29:15;;;;;;;2.22;1.58;;;16.60;99.90;;;;;;5083053;28;20058;-74
2023/04/30 10:31:53;;;;;;;2.63;1.80;;;16.70;99.90;;;;;;5080784;28;20086;-74
2023/04/30 10:34:41;;;;;;;4.07;1.83;;;16.80;99.90;;;;;;5080118;28;20024;-74
2023/04/30 10:37:37;;;;;;;2.92;1.73;;;17.00;99.90;;;;;;5074703;28;20437;-74
2023/04/30 10:40:04;;;;;;;3.08;1.90;;;17.00;99.90;;;;;;5083912;28;20021;-74
2023/04/30 10:42:30;;;;;;;3.35;1.90;;;17.00;99.90;;;;;;5092108;28;20116;-74
2023/04/30 10:44:56;;;;;;;2.55;1.92;;;17.00;99.90;;;;;;5093143;28;20028;-73
2023/04/30 10:47:28;;;;;;;3.55;1.80;;;17.10;99.90;;;;;;5092933;28;20107;-73
2023/04/30 10:50:01;;;;;;;2.50;1.60;;;17.20;99.90;;;;;;5093367;28;20414;-73
2023/04/30 10:52:28;;;;;;;4.10;1.75;;;17.20;99.90;;;;;;5095046;28;20357;-74
2023/04/30 10:54:54;;;;;;;2.50;1.70;;;17.30;99.90;;;;;;5097177;28;20159;-76
2023/04/30 10:57:20;;;;;;;2.20;1.40;;;17.20;99.90;;;;;;5087667;28;20032;-75
2023/04/30 11:00:13;;;;;;;3.40;1.60;;;17.20;99.90;;;;;;5087509;28;20029;-74
2023/04/30 11:02:43;;;;;;;2.47;1.55;;;17.30;99.90;;;;;;5083573;28;20028;-74
2023/04/30 11:05:11;;;;;;;2.40;1.52;;;17.30;99.90;;;;;;5081820;28;20033;-74
2023/04/30 11:07:47;;;;;;;2.70;1.73;;;17.30;99.20;;;;;;5082857;28;20052;-74
2023/04/30 11:10:13;;;;;;;2.88;1.52;;;17.30;99.90;;;;;;5077878;28;20113;-74
2023/04/30 11:12:40;;;;;;;2.42;1.45;;;17.20;99.50;;;;;;5081073;28;20028;-74
2023/04/30 11:15:15;;;;;;;2.30;1.38;;;17.30;99.90;;;;;;5079930;28;20107;-74
2023/04/30 11:17:44;;;;;;;4.80;1.63;;;17.40;98.20;;;;;;5083217;28;20120;-73
2023/04/30 11:20:12;;;;;;;2.22;1.60;;;17.40;97.70;;;;;;5076153;28;20052;-74
2023/04/30 11:22:38;;;;;;;6.80;1.80;;;17.40;99.20;;;;;;5077052;28;20480;-74
2023/04/30 11:25:08;;;;;;;2.47;1.42;;;17.50;99.90;;;;;;5076218;28;20048;-74
2023/04/30 11:27:35;;;;;;;3.40;1.75;;;17.50;99.20;;;;;;5078556;28;20083;-74
2023/04/30 11:30:03;;;;;;;2.47;1.52;;;17.60;99.30;;;;;;5084785;28;20028;-74
2023/04/30 11:32:34;;;;;;;2.92;1.63;;;17.60;97.00;;;;;;5078722;28;20028;-73
2023/04/30 11:35:01;;;;;;;3.72;1.70;;;17.70;96.80;;;;;;5084468;28;20017;-72
2023/04/30 11:37:38;;;;;;;3.05;1.50;;;17.70;98.60;;;;;;5085904;28;20557;-73
2023/04/30 11:40:09;;;;;;;2.65;1.60;;;17.70;99.30;;;;;;5083974;28;20039;-75
2023/04/30 11:42:38;;;;;;;3.55;1.42;;;17.70;96.80;;;;;;5077536;28;20028;-73
2023/04/30 11:45:06;;;;;;;2.10;1.40;;;17.70;95.80;;;;;;5089010;28;20047;-75
2023/04/30 11:47:47;;;;;;;2.42;1.60;;;17.70;97.50;;;;;;5084548;28;20427;-74
2023/04/30 11:50:18;;;;;;;4.57;1.50;;;17.70;94.90;;;;;;5075690;28;20017;-74
2023/04/30 11:52:51;;;;;;;5.47;1.85;;;17.60;96.80;;;;;;5090587;28;20085;-72
2023/04/30 11:55:20;;;;;;;1.67;1.10;;;17.60;97.30;;;;;;5095830;28;20028;-73
2023/04/30 11:57:48;;;;;;;3.13;1.55;;;17.70;95.70;;;;;;5095390;28;20095;-73
2023/04/30 12:00:26;;;;;;;2.20;1.40;;;17.80;95.40;;;;;;5095651;28;20027;-73
2023/04/30 12:02:53;;;;;;;2.25;1.38;;;18.00;96.40;;;;;;5095040;28;20024;-72
2023/04/30 12:05:23;;;;;;;2.40;1.73;;;18.10;95.90;;;;;;5094347;28;20035;-74
2023/04/30 12:08:05;;;;;;;2.25;1.35;;;18.10;95.20;;;;;;5095146;28;20117;-74
2023/04/30 12:10:32;;;;;;;2.38;1.52;;;18.20;95.60;;;;;;5095217;28;20107;-73
2023/04/30 12:12:58;;;;;;;3.28;1.35;;;18.20;95.40;;;;;;5077378;28;20024;-75
2023/04/30 12:15:27;;;;;;;3.03;1.63;;;18.30;95.10;;;;;;5074825;28;20045;-72
2023/04/30 12:17:58;;;;;;;2.83;1.50;;;18.20;95.30;;;;;;5074907;28;20111;-75
2023/04/30 12:20:27;;;;;;;2.22;1.63;;;18.20;95.30;;;;;;5075096;28;20495;-75
2023/04/30 12:22:53;;;;;;;2.50;1.85;;;18.20;95.40;;;;;;5089492;28;20384;-75
2023/04/30 12:25:20;;;;;;;2.53;1.75;;;18.10;94.20;;;;;;5095144;28;20055;-72
2023/04/30 12:27:51;;;;;;;2.22;1.63;;;17.90;94.20;;;;;;5094617;28;20024;-72
2023/04/30 12:30:22;;;;;;;3.13;1.70;;;17.90;94.80;;;;;;5101260;28;20559;-73
2023/04/30 12:32:49;;;;;;;3.33;1.90;;;17.90;93.10;;;;;;5085083;28;20393;-72
2023/04/30 12:35:20;;;;;;;4.72;1.63;;;17.90;94.50;;;;;;5083069;28;20037;-73
2023/04/30 12:38:05;;;;;;;3.22;1.73;;;18.00;95.20;;;;;;5079276;28;20024;-73
2023/04/30 12:40:31;;;;;;;2.92;1.70;;;18.10;95.30;;;;;;5090857;28;20020;-73
2023/04/30 12:43:16;;;;;;;3.78;1.75;;;18.30;94.80;;;;;;5085128;28;20032;-74
2023/04/30 12:45:54;;;;;;;2.42;1.77;;;18.40;93.50;;;;;;5080423;28;20025;-74
2023/04/30 12:48:23;;;;;;;2.83;1.95;;;18.30;93.30;;;;;;5081129;28;20027;-73
2023/04/30 12:51:00;;;;;;;2.67;1.70;;;18.40;91.20;;;;;;5084588;28;20077;-73
2023/04/30 12:53:27;;;;;;;3.35;1.90;;;18.40;91.20;;;;;;5085420;28;20020;-73
2023/04/30 12:56:08;;;;;;;2.40;1.65;;;18.40;93.50;;;;;;5073296;28;20028;-73